createdAt,value
2022-11-29T00:01:46.125Z,101698.70
2022-11-29T00:04:15.279Z,101697.36
2022-11-29T00:06:45.262Z,101709.52
2022-11-29T00:09:14.222Z,101706.33
2022-11-29T00:12:02.646Z,101704.86
2022-11-29T00:14:31.687Z,101706.48
2022-11-29T00:17:04.127Z,101701.94
2022-11-29T00:19:33.859Z,101703.67
2022-11-29T00:22:02.697Z,101698.11
2022-11-29T00:24:32.779Z,101704.48
2022-11-29T00:27:01.367Z,101704.48
2022-11-29T00:29:31.940Z,101706.81
2022-11-29T00:32:00.665Z,101698.59
2022-11-29T00:34:29.206Z,101696.60
2022-11-29T00:36:57.893Z,101694.77
2022-11-29T00:39:26.982Z,101700.66
2022-11-29T00:41:55.932Z,101698.92
2022-11-29T00:44:25.397Z,101701.63
2022-11-29T00:46:54.944Z,101697.84
2022-11-29T00:49:23.979Z,101691.46
2022-11-29T00:51:52.624Z,101702.65
2022-11-29T00:54:22.957Z,101699.79
2022-11-29T00:56:52.245Z,101704.70
2022-11-29T00:59:20.808Z,101710.22
2022-11-29T01:01:49.562Z,101696.93
2022-11-29T01:04:18.078Z,101702.66
2022-11-29T01:06:46.755Z,101704.61
2022-11-29T01:09:15.535Z,101698.72
2022-11-29T01:11:44.515Z,101704.50
2022-11-29T01:14:14.204Z,101697.26
2022-11-29T01:16:42.836Z,101705.84
2022-11-29T01:19:11.656Z,101708.66
2022-11-29T01:21:41.401Z,101695.64
2022-11-29T01:24:11.412Z,101697.09
2022-11-29T01:26:40.278Z,101696.94
2022-11-29T01:29:10.952Z,101698.29
2022-11-29T01:31:39.697Z,101698.67
2022-11-29T01:34:08.426Z,101704.34
2022-11-29T01:36:38.079Z,101701.16
2022-11-29T01:39:07.176Z,101702.39
2022-11-29T01:41:37.421Z,101701.91
2022-11-29T01:44:17.099Z,101700.94
2022-11-29T01:46:46.952Z,101695.53
2022-11-29T01:49:34.419Z,101704.98
2022-11-29T01:52:23.870Z,101701.64
2022-11-29T01:54:56.797Z,101697.05
2022-11-29T01:57:25.766Z,101700.45
2022-11-29T02:00:02.034Z,101692.34
2022-11-29T02:02:38.228Z,101697.00
2022-11-29T02:05:08.138Z,101695.86
2022-11-29T02:07:37.736Z,101694.89
2022-11-29T02:10:08.464Z,101696.23
2022-11-29T02:13:00.270Z,101687.37
2022-11-29T02:15:55.395Z,101680.63
2022-11-29T02:19:03.375Z,101680.36
2022-11-29T02:21:47.110Z,101681.92
2022-11-29T02:24:27.136Z,101688.78
2022-11-29T02:27:19.599Z,101683.27
2022-11-29T02:30:25.708Z,101688.30
2022-11-29T02:33:06.074Z,101693.81
2022-11-29T02:35:56.387Z,101698.34
2022-11-29T02:39:07.418Z,101705.47
2022-11-29T02:42:01.515Z,101705.36
2022-11-29T02:44:56.346Z,101691.27
2022-11-29T02:48:14.530Z,101697.53
2022-11-29T02:50:54.379Z,101710.88
2022-11-29T02:53:45.521Z,101710.61
2022-11-29T02:56:32.138Z,101703.95
2022-11-29T02:59:18.121Z,101707.73
2022-11-29T03:02:17.343Z,101712.00
2022-11-29T03:04:57.839Z,101706.44
2022-11-29T03:07:34.548Z,101701.05
2022-11-29T03:10:31.664Z,101707.95
2022-11-29T03:13:00.447Z,101700.33
2022-11-29T03:15:43.597Z,101703.41
2022-11-29T03:18:50.719Z,101710.55
2022-11-29T03:21:41.619Z,101703.69
2022-11-29T03:24:20.727Z,101698.56
2022-11-29T03:26:58.123Z,101693.54
2022-11-29T03:29:43.069Z,101704.23
2022-11-29T03:32:32.452Z,101707.53
2022-11-29T03:35:43.135Z,101718.81
2022-11-29T03:38:40.061Z,101719.02
2022-11-29T03:41:26.514Z,101707.36
2022-11-29T03:44:22.166Z,101721.93
2022-11-29T03:46:57.060Z,101730.62
2022-11-29T03:49:40.717Z,101735.36
2022-11-29T03:52:20.939Z,101730.34
2022-11-29T03:55:03.917Z,101722.73
2022-11-29T03:57:47.712Z,101729.58
2022-11-29T04:00:17.578Z,101739.89
2022-11-29T04:03:30.429Z,101730.83
2022-11-29T04:06:36.838Z,101740.77
2022-11-29T04:09:30.072Z,101750.14
2022-11-29T04:12:51.925Z,101743.49
2022-11-29T04:15:55.261Z,101741.28
2022-11-29T04:18:58.649Z,101747.64
2022-11-29T04:21:46.041Z,101749.38
2022-11-29T04:24:35.243Z,101753.42
2022-11-29T04:27:22.456Z,101746.68
2022-11-29T04:30:08.302Z,101737.02
2022-11-29T04:33:03.655Z,101743.56
2022-11-29T04:36:08.555Z,101745.30
2022-11-29T04:39:02.324Z,101751.17
2022-11-29T04:42:16.122Z,101749.94
2022-11-29T04:45:28.988Z,101753.60
2022-11-29T04:48:15.112Z,101752.25
2022-11-29T04:51:09.002Z,101750.34
2022-11-29T04:54:04.401Z,101755.95
2022-11-29T04:56:45.230Z,101757.68
2022-11-29T04:59:28.856Z,101754.50
2022-11-29T05:02:37.098Z,101752.28
2022-11-29T05:05:45.866Z,101755.08
2022-11-29T05:08:49.163Z,101747.95
2022-11-29T05:11:52.700Z,101740.34
2022-11-29T08:22:15.804Z,101840.23
2022-11-29T08:24:44.933Z,101842.94
2022-11-29T08:27:15.994Z,101846.59
2022-11-29T08:29:45.242Z,101845.63
2022-11-29T08:32:15.779Z,101837.82
2022-11-29T08:34:44.816Z,101839.55
2022-11-29T08:37:13.863Z,101822.11
2022-11-29T08:39:43.603Z,101828.86
2022-11-29T08:42:13.178Z,101835.02
2022-11-29T08:44:41.795Z,101830.39
2022-11-29T08:47:16.328Z,101821.05
2022-11-29T08:50:04.119Z,101815.27
2022-11-29T08:52:55.016Z,101813.64
2022-11-29T08:55:27.775Z,101818.83
2022-11-29T08:58:06.085Z,101818.25
2022-11-29T09:00:35.369Z,101825.45
2022-11-29T09:03:23.594Z,101812.73
2022-11-29T09:05:52.681Z,101819.09
2022-11-29T09:08:21.772Z,101818.22
2022-11-29T09:10:50.890Z,101818.12
2022-11-29T09:13:21.269Z,101811.55
2022-11-29T09:15:50.555Z,101811.45
2022-11-29T09:18:20.215Z,101809.52
2022-11-29T09:20:49.651Z,101804.81
2022-11-29T09:23:19.130Z,101808.09
2022-11-29T09:25:50.862Z,101807.71
2022-11-29T09:28:22.061Z,101807.43
2022-11-29T09:30:51.129Z,101805.11
2022-11-29T09:33:20.413Z,101802.03
2022-11-29T09:35:49.065Z,101801.06
2022-11-29T09:38:19.407Z,101808.20
2022-11-29T09:40:55.733Z,101800.38
2022-11-29T09:44:01.573Z,101798.72
2022-11-29T09:47:00.089Z,101793.70
2022-11-29T09:49:57.647Z,101789.76
2022-11-29T09:53:06.524Z,101782.15
2022-11-29T09:55:58.805Z,101780.20
2022-11-29T09:58:32.373Z,101783.19
2022-11-29T10:01:05.572Z,101781.53
2022-11-29T10:03:44.153Z,101779.59
2022-11-29T10:06:24.320Z,101778.24
2022-11-29T10:09:15.777Z,101776.61
2022-11-29T10:12:02.194Z,101780.87
2022-11-29T10:14:50.315Z,101784.33
2022-11-29T10:17:43.480Z,101783.57
2022-11-29T10:20:17.397Z,101795.05
2022-11-29T10:23:17.377Z,101793.91
2022-11-29T10:25:49.238Z,101789.20
2022-11-29T10:28:23.118Z,101789.30
2022-11-29T10:30:55.120Z,101787.37
2022-11-29T10:33:30.715Z,101785.05
2022-11-29T10:36:04.115Z,101789.48
2022-11-29T10:38:33.529Z,101789.09
2022-11-29T10:41:12.040Z,101795.56
2022-11-29T10:43:41.153Z,101790.66
2022-11-29T10:46:20.178Z,101784.59
2022-11-29T10:48:49.649Z,101790.09
2022-11-29T10:51:18.183Z,101789.91
2022-11-29T10:53:47.358Z,101780.67
2022-11-29T10:56:29.735Z,101789.43
2022-11-29T10:59:05.803Z,101788.26
2022-11-29T11:01:40.077Z,101787.29
2022-11-29T11:04:12.318Z,101790.09
2022-11-29T11:06:51.593Z,101792.89
2022-11-29T11:09:43.116Z,101789.33
2022-11-29T11:12:24.320Z,101792.20
2022-11-29T11:14:56.691Z,101794.31
2022-11-29T11:17:32.856Z,101792.00
2022-11-29T11:20:21.168Z,101790.17
2022-11-29T11:23:25.621Z,101786.13
2022-11-29T11:26:05.071Z,101786.61
2022-11-29T11:29:02.139Z,101791.52
2022-11-29T11:31:38.093Z,101793.83
2022-11-29T11:34:36.893Z,101795.08
2022-11-29T11:37:22.669Z,101787.47
2022-11-29T11:39:58.717Z,101784.39
2022-11-29T11:42:37.984Z,101793.55
2022-11-29T11:45:15.589Z,101786.81
2022-11-29T11:47:52.939Z,101789.41
2022-11-29T11:50:32.960Z,101780.34
2022-11-29T11:53:10.200Z,101784.01
2022-11-29T11:55:44.058Z,101775.42
2022-11-29T11:58:17.352Z,101777.37
2022-11-29T12:01:03.925Z,101769.86
2022-11-29T12:03:31.799Z,101768.23
2022-11-29T12:06:42.683Z,101767.36
2022-11-29T12:09:35.588Z,101762.83
2022-11-29T12:12:20.608Z,101768.43
2022-11-29T12:15:20.245Z,101760.82
2022-11-29T12:18:03.969Z,101765.35
2022-11-29T12:20:53.170Z,101765.07
2022-11-29T12:23:49.106Z,101763.83
2022-11-29T12:26:55.795Z,101769.50
2022-11-29T12:28:59.966Z,101771.23
2022-11-29T12:32:00.445Z,101765.84
2022-11-29T12:34:52.688Z,101766.04
2022-11-29T12:37:50.157Z,101773.27
2022-11-29T12:40:33.520Z,101774.33
2022-11-29T12:43:43.195Z,101777.62
2022-11-29T12:46:27.737Z,101777.14
2022-11-29T12:49:25.926Z,101775.10
2022-11-29T12:52:19.217Z,101775.86
2022-11-29T12:55:02.572Z,101775.48
2022-11-29T12:57:59.388Z,101773.16
2022-11-29T13:00:35.942Z,101779.15
2022-11-29T13:03:25.026Z,101772.98
2022-11-29T13:06:30.890Z,101769.91
2022-11-29T13:09:25.090Z,101770.49
2022-11-29T13:11:58.771Z,101768.94
2022-11-29T13:14:48.469Z,101783.58
2022-11-29T13:17:08.301Z,101776.55
2022-11-29T13:19:57.945Z,101802.09
2022-11-29T13:22:50.164Z,101780.34
2022-11-29T13:25:41.478Z,101785.83
2022-11-29T13:28:28.150Z,101783.23
2022-11-29T13:31:07.095Z,101776.97
2022-11-29T13:34:04.009Z,101785.17
2022-11-29T13:36:58.043Z,101776.86
2022-11-29T13:40:00.310Z,101781.48
2022-11-29T13:42:56.683Z,101778.41
2022-11-29T13:45:35.235Z,101790.16
2022-11-29T13:48:41.744Z,101787.84
2022-11-29T13:51:35.112Z,101789.68
2022-11-29T13:54:46.753Z,101784.38
2022-11-29T14:04:08.345Z,101799.98
2022-11-29T14:09:54.627Z,101798.76
2022-11-29T14:12:39.703Z,101807.59
2022-11-29T14:15:28.921Z,101802.69
2022-11-29T14:18:17.716Z,101795.74
2022-11-29T14:20:56.508Z,101790.73
2022-11-29T14:23:47.017Z,101792.87
2022-11-29T14:26:28.299Z,101792.56
2022-11-29T14:28:57.478Z,101785.92
2022-11-29T14:31:51.455Z,101790.83
2022-11-29T14:34:26.386Z,101783.44
2022-11-29T14:37:19.754Z,101793.36
2022-11-29T14:39:52.644Z,101794.01
2022-11-29T14:42:24.947Z,101786.02
2022-11-29T14:45:01.637Z,101784.77
2022-11-29T14:47:40.380Z,101781.30
2022-11-29T14:50:15.387Z,101778.12
2022-11-29T14:52:53.470Z,101784.48
2022-11-29T14:55:31.699Z,101795.27
2022-11-29T14:58:08.373Z,101786.31
2022-11-29T15:01:02.779Z,101788.05
2022-11-29T15:03:41.784Z,101789.30
2022-11-29T15:06:28.000Z,101790.06
2022-11-29T15:09:17.952Z,101795.84
2022-11-29T15:11:56.830Z,101796.52
2022-11-29T15:14:38.918Z,101798.84
2022-11-29T15:17:54.551Z,101799.12
2022-11-29T15:21:06.862Z,101800.37
2022-11-29T15:23:53.385Z,101802.10
2022-11-29T15:26:24.350Z,101801.72
2022-11-29T15:32:36.705Z,101811.36
2022-11-29T15:35:27.900Z,101801.53
2022-11-29T15:38:41.227Z,101801.92
2022-11-29T15:41:40.634Z,101804.61
2022-11-29T15:44:24.015Z,101808.47
2022-11-29T15:47:02.241Z,101806.94
2022-11-29T15:49:42.048Z,101805.98
2022-11-29T15:52:42.123Z,101799.92
2022-11-29T15:55:24.888Z,101808.68
2022-11-29T15:58:08.536Z,101801.08
2022-11-29T16:00:57.942Z,101800.59
2022-11-29T16:03:52.452Z,101810.03
2022-11-29T16:06:40.957Z,101805.02
2022-11-29T16:09:35.259Z,101804.25
2022-11-29T16:15:31.905Z,101802.52
2022-11-29T16:18:17.539Z,101789.63
2022-11-29T16:21:08.253Z,101800.12
2022-11-29T16:23:44.545Z,101798.87
2022-11-29T16:29:57.504Z,101797.52
2022-11-29T16:32:42.850Z,101796.55
2022-11-29T16:35:24.681Z,101794.62
2022-11-29T16:38:12.301Z,101792.22
2022-11-29T16:40:50.502Z,101792.70
2022-11-29T16:43:27.713Z,101795.68
2022-11-29T16:46:30.927Z,101799.05
2022-11-29T16:49:08.366Z,101801.84
2022-11-29T16:51:50.053Z,101800.59
2022-11-29T16:54:26.507Z,101803.29
2022-11-29T16:57:04.647Z,101804.05
2022-11-29T16:59:39.988Z,101805.41
2022-11-29T17:02:17.574Z,101803.58
2022-11-29T17:04:53.102Z,101801.94
2022-11-29T17:07:38.970Z,101797.41
2022-11-29T17:10:18.985Z,101800.41
2022-11-29T17:12:53.785Z,101803.58
2022-11-29T17:15:22.725Z,101807.53
2022-11-29T17:17:51.934Z,101802.91
2022-11-29T17:20:23.739Z,101805.02
2022-11-29T17:22:52.947Z,101803.19
2022-11-29T17:25:22.940Z,101809.45
2022-11-29T17:27:52.300Z,101809.64
2022-11-29T17:30:21.435Z,101805.20
2022-11-29T17:32:51.536Z,101806.74
2022-11-29T17:35:21.479Z,101808.09
2022-11-29T17:37:50.701Z,101814.83
2022-11-29T17:40:20.330Z,101815.22
2022-11-29T17:42:49.204Z,101810.69
2022-11-29T17:45:18.667Z,101815.59
2022-11-29T17:47:49.891Z,101818.78
2022-11-29T17:50:20.985Z,101817.05
2022-11-29T17:52:50.090Z,101817.72
2022-11-29T17:55:20.830Z,101819.08
2022-11-29T17:57:49.972Z,101820.91
2022-11-29T18:00:20.571Z,101818.88
2022-11-29T18:02:49.500Z,101815.41
2022-11-29T18:05:18.529Z,101810.50
2022-11-29T18:08:00.220Z,101804.62
2022-11-29T18:10:29.504Z,101817.34
2022-11-29T18:12:58.912Z,101815.61
2022-11-29T18:15:28.481Z,101823.50
2022-11-29T18:17:57.852Z,101820.04
2022-11-29T18:20:26.856Z,101813.30
2022-11-29T18:22:56.319Z,101808.87
2022-11-29T18:25:41.633Z,101818.79
2022-11-29T18:27:58.090Z,101817.25
2022-11-29T18:30:28.084Z,101816.77
2022-11-29T18:32:57.595Z,101819.84
2022-11-29T18:35:28.286Z,101820.05
2022-11-29T18:38:14.688Z,101812.34
2022-11-29T18:40:29.387Z,101818.70
2022-11-29T18:42:58.156Z,101815.24
2022-11-29T18:45:28.738Z,101814.56
2022-11-29T18:47:59.253Z,101812.92
2022-11-29T18:50:28.075Z,101812.24
2022-11-29T18:52:58.583Z,101809.45
2022-11-29T18:55:28.148Z,101815.70
2022-11-29T18:57:57.139Z,101813.11
2022-11-29T19:00:26.341Z,101810.03
2022-11-29T19:02:57.102Z,101808.68
2022-11-29T19:05:26.884Z,101810.80
2022-11-29T19:07:56.734Z,101813.69
2022-11-29T19:10:26.373Z,101821.59
2022-11-29T19:12:55.807Z,101816.58
2022-11-29T19:15:25.111Z,101811.77
2022-11-29T19:17:54.420Z,101816.39
2022-11-29T19:20:23.288Z,101817.94
2022-11-29T19:22:56.149Z,101821.59
2022-11-29T19:25:24.388Z,101811.20
2022-11-29T19:27:53.355Z,101813.41
2022-11-29T19:30:24.086Z,101816.97
2022-11-29T19:32:53.996Z,101812.73
2022-11-29T19:35:24.332Z,101813.31
2022-11-29T19:37:53.774Z,101816.30
2022-11-29T19:40:25.482Z,101807.45
2022-11-29T19:42:55.441Z,101813.61
2022-11-29T19:45:24.644Z,101808.60
2022-11-29T19:47:55.550Z,101811.88
2022-11-29T19:50:26.639Z,101814.57
2022-11-29T19:52:56.606Z,101816.78
2022-11-29T19:55:26.704Z,101818.61
2022-11-29T19:57:57.211Z,101817.84
2022-11-29T20:00:28.298Z,101820.06
2022-11-29T20:02:57.503Z,101821.80
2022-11-29T20:05:27.239Z,101817.94
2022-11-29T20:07:56.858Z,101815.92
2022-11-29T20:10:27.681Z,101818.12
2022-11-29T20:12:57.146Z,101826.22
2022-11-29T20:15:25.643Z,101826.80
2022-11-29T20:17:56.189Z,101826.89
2022-11-29T20:20:25.967Z,101827.27
2022-11-29T20:22:55.196Z,101818.71
2022-11-29T20:25:24.613Z,101828.62
2022-11-29T20:27:53.623Z,101823.62
2022-11-29T20:30:26.281Z,101829.01
2022-11-29T20:32:57.038Z,101827.47
2022-11-29T20:35:27.871Z,101824.09
2022-11-29T20:38:21.949Z,101832.09
2022-11-29T20:41:02.296Z,101824.77
2022-11-29T20:44:00.361Z,101829.11
2022-11-29T20:46:30.619Z,101829.11
2022-11-29T20:49:06.302Z,101832.77
2022-11-29T20:51:39.341Z,101834.40
2022-11-29T20:54:12.459Z,101837.00
2022-11-29T20:56:42.109Z,101834.50
2022-11-29T20:59:11.406Z,101832.47
2022-11-29T21:01:41.964Z,101839.11
2022-11-29T21:04:11.215Z,101831.03
2022-11-29T21:06:40.151Z,101830.94
2022-11-29T21:09:13.331Z,101833.53
2022-11-29T21:11:43.329Z,101836.13
2022-11-29T21:14:13.423Z,101841.05
2022-11-29T21:16:43.609Z,101837.09
2022-11-29T21:19:20.417Z,101845.56
2022-11-29T21:22:19.869Z,101836.03
2022-11-29T21:25:01.084Z,101832.38
2022-11-29T21:27:33.718Z,101841.58
2022-11-29T21:30:05.273Z,101842.92
2022-11-29T21:32:37.215Z,101833.30
2022-11-29T21:35:07.593Z,101834.34
2022-11-29T21:37:37.383Z,101832.23
2022-11-29T21:40:08.108Z,101825.40
2022-11-29T21:42:37.062Z,101822.61
2022-11-29T21:45:13.290Z,101823.00
2022-11-29T21:47:39.093Z,101828.87
2022-11-29T21:50:09.432Z,101825.78
2022-11-29T21:52:38.618Z,101823.38
2022-11-29T21:55:09.811Z,101825.89
2022-11-29T21:57:39.916Z,101825.16
2022-11-29T22:00:09.798Z,101821.20
2022-11-29T22:02:40.422Z,101820.73
2022-11-29T22:05:10.153Z,101821.59
2022-11-29T22:07:39.271Z,101827.37
2022-11-29T22:10:13.328Z,101829.20
2022-11-29T22:12:49.359Z,101829.29
2022-11-29T22:15:13.087Z,101823.33
2022-11-29T22:17:42.348Z,101826.79
2022-11-29T22:20:13.250Z,101827.56
2022-11-29T22:22:42.822Z,101829.30
2022-11-29T22:25:15.786Z,101828.72
2022-11-29T22:27:45.791Z,101827.76
2022-11-29T22:30:16.146Z,101826.60
2022-11-29T22:32:45.154Z,101827.76
2022-11-29T22:35:15.295Z,101830.45
2022-11-29T22:37:44.087Z,101823.72
2022-11-29T22:40:13.265Z,101822.27
2022-11-29T22:42:43.229Z,101816.98
2022-11-29T22:45:12.844Z,101817.55
2022-11-29T22:47:42.001Z,101820.73
2022-11-29T22:50:12.422Z,101823.81
2022-11-29T22:52:41.423Z,101821.98
2022-11-29T22:55:10.510Z,101819.67
2022-11-29T22:57:39.988Z,101817.94
2022-11-29T23:00:13.261Z,101816.59
2022-11-29T23:02:44.192Z,101818.12
2022-11-29T23:05:13.379Z,101814.09
2022-11-29T23:07:43.877Z,101814.09
2022-11-29T23:10:14.217Z,101816.30
2022-11-29T23:12:44.594Z,101815.05
2022-11-29T23:15:13.995Z,101814.00
2022-11-29T23:17:42.952Z,101812.16
2022-11-29T23:20:35.878Z,101807.25
2022-11-29T23:23:05.620Z,101811.01
2022-11-29T23:25:36.010Z,101806.00
2022-11-29T23:28:05.257Z,101812.36
2022-11-29T23:30:33.934Z,101807.35
2022-11-29T23:33:03.597Z,101812.16
2022-11-29T23:35:33.052Z,101812.16
2022-11-29T23:38:02.039Z,101811.39
2022-11-29T23:40:31.860Z,101808.70
2022-11-29T23:43:01.068Z,101803.80
2022-11-29T23:45:30.595Z,101809.76
2022-11-29T23:47:59.953Z,101808.31
2022-11-29T23:50:29.083Z,101816.78
2022-11-29T23:52:58.454Z,101815.44
2022-11-29T23:55:28.832Z,101816.78
2022-11-29T23:58:03.283Z,101825.25
